createdAt,value
2019-02-09T00:01:33.036Z,33.13
2019-02-09T00:04:02.504Z,30.93
2019-02-09T00:06:32.003Z,30.23
2019-02-09T00:09:01.534Z,29.60
2019-02-09T00:11:31.015Z,30.77
2019-02-09T00:14:00.517Z,29.70
2019-02-09T00:16:29.988Z,29.83
2019-02-09T00:18:59.444Z,27.43
2019-02-09T00:21:29.017Z,26.40
2019-02-09T00:23:58.516Z,25.73
2019-02-09T00:26:28.019Z,24.30
2019-02-09T00:28:57.580Z,24.00
2019-02-09T00:31:27.036Z,24.33
2019-02-09T00:33:56.540Z,22.10
2019-02-09T00:36:26.023Z,23.40
2019-02-09T00:38:55.462Z,23.17
2019-02-09T00:41:25.250Z,22.87
2019-02-09T00:43:54.744Z,41.33
2019-02-09T00:46:24.297Z,31.03
2019-02-09T00:48:53.820Z,27.00
2019-02-09T00:51:23.287Z,27.90
2019-02-09T00:53:52.797Z,26.77
2019-02-09T00:56:22.283Z,25.63
2019-02-09T00:58:51.781Z,23.50
2019-02-09T01:01:21.240Z,23.80
2019-02-09T01:03:50.780Z,24.87
2019-02-09T01:06:20.219Z,25.10
2019-02-09T01:08:49.668Z,23.83
2019-02-09T01:11:19.201Z,22.03
2019-02-09T01:13:48.653Z,19.20
2019-02-09T01:16:18.123Z,19.30
2019-02-09T01:18:47.608Z,18.10
2019-02-09T01:21:17.118Z,17.70
2019-02-09T01:23:46.612Z,17.87
2019-02-09T01:26:16.126Z,17.03
2019-02-09T01:28:45.617Z,17.03
2019-02-09T01:31:15.147Z,17.57
2019-02-09T01:33:44.628Z,16.97
2019-02-09T01:36:14.161Z,15.87
2019-02-09T01:38:43.637Z,16.77
2019-02-09T01:41:13.160Z,16.00
2019-02-09T01:43:42.705Z,15.50
2019-02-09T01:46:12.197Z,14.67
2019-02-09T01:48:41.729Z,15.73
2019-02-09T01:51:11.254Z,15.87
2019-02-09T01:53:40.777Z,14.27
2019-02-09T01:56:10.284Z,14.07
2019-02-09T01:58:39.740Z,14.00
2019-02-09T02:01:09.264Z,15.00
2019-02-09T02:03:38.719Z,14.77
2019-02-09T02:06:08.642Z,15.23
2019-02-09T02:08:38.108Z,14.43
2019-02-09T02:11:07.616Z,15.93
2019-02-09T02:13:37.120Z,15.60
2019-02-09T02:16:06.714Z,15.50
2019-02-09T02:18:36.166Z,15.23
2019-02-09T02:21:05.633Z,14.70
2019-02-09T02:23:35.133Z,13.20
2019-02-09T02:26:04.858Z,14.27
2019-02-09T02:28:34.335Z,13.77
2019-02-09T02:31:03.826Z,13.83
2019-02-09T02:33:33.301Z,13.90
2019-02-09T02:36:02.846Z,13.20
2019-02-09T02:38:32.300Z,13.73
2019-02-09T02:41:01.790Z,13.27
2019-02-09T02:43:31.283Z,13.73
2019-02-09T02:46:00.823Z,14.30
2019-02-09T02:48:30.305Z,13.03
2019-02-09T02:50:59.931Z,13.60
2019-02-09T02:53:29.435Z,13.30
2019-02-09T02:55:58.904Z,13.10
2019-02-09T02:58:28.462Z,14.23
2019-02-09T03:00:57.964Z,16.73
2019-02-09T03:03:27.469Z,14.57
2019-02-09T03:05:56.967Z,13.60
2019-02-09T03:08:26.565Z,13.87
2019-02-09T03:10:56.047Z,13.77
2019-02-09T03:13:25.568Z,14.03
2019-02-09T03:15:55.074Z,14.07
2019-02-09T03:18:24.561Z,14.67
2019-02-09T03:20:54.003Z,15.37
2019-02-09T03:23:23.484Z,18.90
2019-02-09T03:25:53.082Z,18.73
2019-02-09T03:28:22.549Z,15.30
2019-02-09T03:30:52.028Z,15.57
2019-02-09T03:33:21.523Z,14.63
2019-02-09T03:35:51.048Z,13.93
2019-02-09T03:38:20.510Z,14.50
2019-02-09T03:40:49.992Z,13.43
2019-02-09T03:43:19.538Z,13.63
2019-02-09T03:45:49.018Z,14.13
2019-02-09T03:48:18.476Z,14.00
2019-02-09T03:50:47.987Z,13.67
2019-02-09T03:53:17.451Z,14.20
2019-02-09T03:55:46.964Z,14.93
2019-02-09T03:58:16.446Z,15.43
2019-02-09T04:00:54.959Z,14.63
2019-02-09T04:03:17.097Z,14.40
2019-02-09T04:05:46.600Z,13.37
2019-02-09T04:08:16.091Z,12.13
2019-02-09T04:10:45.594Z,12.60
2019-02-09T04:13:15.049Z,13.23
2019-02-09T04:15:44.516Z,13.57
2019-02-09T04:18:14.321Z,13.93
2019-02-09T04:20:43.848Z,12.93
2019-02-09T04:23:13.282Z,13.10
2019-02-09T04:25:43.710Z,12.17
2019-02-09T04:28:13.217Z,11.97
2019-02-09T04:30:42.683Z,10.50
2019-02-09T04:33:12.173Z,9.83
2019-02-09T04:35:41.699Z,10.03
2019-02-09T04:38:11.141Z,9.60
2019-02-09T04:40:40.629Z,9.43
2019-02-09T04:43:10.149Z,10.33
2019-02-09T04:45:39.610Z,10.17
2019-02-09T04:48:09.151Z,11.57
2019-02-09T04:50:38.615Z,12.20
2019-02-09T04:53:09.273Z,11.50
2019-02-09T04:55:38.770Z,11.27
2019-02-09T04:58:08.221Z,10.80
2019-02-09T05:00:37.744Z,9.77
2019-02-09T05:03:07.484Z,8.97
2019-02-09T05:05:36.927Z,8.73
2019-02-09T05:08:06.457Z,10.07
2019-02-09T05:10:35.919Z,10.40
2019-02-09T05:13:05.401Z,10.53
2019-02-09T05:15:34.922Z,10.70
2019-02-09T05:18:04.498Z,11.47
2019-02-09T05:20:33.957Z,11.30
2019-02-09T05:23:03.475Z,12.00
2019-02-09T05:25:32.924Z,11.97
2019-02-09T05:28:02.413Z,11.43
2019-02-09T05:30:31.893Z,11.20
2019-02-09T05:33:01.444Z,11.50
2019-02-09T05:35:30.911Z,11.03
2019-02-09T05:38:00.437Z,11.80
2019-02-09T05:40:29.897Z,12.80
2019-02-09T05:42:59.383Z,15.10
2019-02-09T05:45:29.524Z,15.57
2019-02-09T05:47:59.025Z,14.33
2019-02-09T05:50:28.537Z,14.10
2019-02-09T05:52:58.042Z,12.43
2019-02-09T05:55:27.507Z,10.93
2019-02-09T05:57:56.973Z,11.73
2019-02-09T06:00:46.685Z,12.87
2019-02-09T06:03:16.197Z,11.73
2019-02-09T06:05:45.694Z,10.87
2019-02-09T06:08:15.173Z,10.13
2019-02-09T06:10:44.676Z,9.97
2019-02-09T06:13:14.140Z,10.07
2019-02-09T06:15:43.618Z,11.60
2019-02-09T06:18:13.116Z,12.63
2019-02-09T06:20:44.726Z,14.50
2019-02-09T06:23:23.903Z,14.60
2019-02-09T06:25:53.376Z,14.07
2019-02-09T06:28:22.912Z,13.70
2019-02-09T06:30:52.459Z,13.27
2019-02-09T06:33:21.906Z,13.80
2019-02-09T06:35:51.389Z,12.63
2019-02-09T06:38:20.886Z,12.67
2019-02-09T06:40:50.402Z,12.00
2019-02-09T06:43:20.074Z,11.20
2019-02-09T06:45:49.570Z,10.47
2019-02-09T06:48:24.895Z,10.83
2019-02-09T06:50:55.704Z,10.30
2019-02-09T06:53:25.207Z,10.47
2019-02-09T06:55:54.699Z,12.03
2019-02-09T06:58:24.165Z,11.40
2019-02-09T07:00:53.653Z,11.60
2019-02-09T07:03:23.180Z,12.13
2019-02-09T07:05:52.645Z,11.57
2019-02-09T07:08:22.134Z,12.67
2019-02-09T07:10:51.619Z,12.57
2019-02-09T07:13:21.146Z,14.43
2019-02-09T07:15:50.602Z,13.80
2019-02-09T07:18:20.155Z,14.40
2019-02-09T07:20:49.673Z,14.20
2019-02-09T07:23:19.207Z,14.17
2019-02-09T07:25:48.728Z,13.30
2019-02-09T07:28:18.261Z,12.37
2019-02-09T07:30:47.791Z,12.83
2019-02-09T07:33:17.451Z,12.40
2019-02-09T07:35:46.964Z,12.73
2019-02-09T07:38:16.470Z,14.87
2019-02-09T07:40:46.017Z,67.37
2019-02-09T07:43:15.583Z,41.80
2019-02-09T07:45:45.081Z,39.23
2019-02-09T07:48:14.664Z,33.23
2019-02-09T07:50:44.119Z,26.53
2019-02-09T07:53:13.659Z,23.53
2019-02-09T07:55:43.184Z,21.80
2019-02-09T07:58:12.685Z,22.17
2019-02-09T08:00:42.168Z,21.20
2019-02-09T08:03:11.727Z,20.17
2019-02-09T08:05:41.232Z,20.30
2019-02-09T08:08:11.110Z,21.63
2019-02-09T08:10:40.726Z,21.53
2019-02-09T08:13:10.269Z,20.10
2019-02-09T08:15:39.794Z,18.37
2019-02-09T08:18:09.793Z,18.03
2019-02-09T08:20:39.266Z,16.53
2019-02-09T08:23:08.800Z,15.87
2019-02-09T08:25:39.193Z,17.50
2019-02-09T08:28:09.508Z,18.07
2019-02-09T08:30:41.453Z,18.00
2019-02-09T08:33:11.875Z,15.43
2019-02-09T08:35:41.447Z,15.33
2019-02-09T08:38:12.593Z,15.30
2019-02-09T08:40:42.091Z,13.63
2019-02-09T08:43:11.825Z,12.80
2019-02-09T08:45:41.364Z,11.73
2019-02-09T08:48:10.851Z,11.33
2019-02-09T08:51:01.603Z,10.93
2019-02-09T08:53:31.072Z,11.93
2019-02-09T08:56:00.566Z,14.00
2019-02-09T08:58:30.096Z,18.03
2019-02-09T09:00:59.677Z,23.50
2019-02-09T09:03:29.206Z,32.87
2019-02-09T09:05:58.664Z,13.13
2019-02-09T09:08:28.132Z,12.93
2019-02-09T09:10:57.643Z,11.87
2019-02-09T09:13:27.138Z,11.50
2019-02-09T09:15:58.019Z,12.30
2019-02-09T09:18:27.495Z,15.93
2019-02-09T09:20:59.874Z,19.27
2019-02-09T09:23:29.386Z,22.27
2019-02-09T09:25:58.987Z,20.47
2019-02-09T09:28:28.508Z,21.87
2019-02-09T09:30:57.989Z,21.13
2019-02-09T09:33:27.501Z,22.17
2019-02-09T09:35:56.997Z,22.03
2019-02-09T09:38:26.509Z,21.50
2019-02-09T09:40:56.087Z,21.90
2019-02-09T09:43:25.825Z,23.03
2019-02-09T09:45:55.429Z,23.10
2019-02-09T09:48:24.910Z,24.23
2019-02-09T09:50:54.383Z,24.00
2019-02-09T09:53:23.881Z,23.20
2019-02-09T09:55:53.352Z,24.33
2019-02-09T09:58:22.854Z,23.27
2019-02-09T10:00:52.339Z,23.90
2019-02-09T10:03:21.843Z,25.77
2019-02-09T10:05:51.367Z,25.83
2019-02-09T10:08:20.971Z,25.57
2019-02-09T10:10:50.495Z,26.43
2019-02-09T10:13:19.975Z,26.47
2019-02-09T10:15:49.479Z,30.20
2019-02-09T10:18:18.968Z,31.70
2019-02-09T10:20:48.444Z,31.83
2019-02-09T10:23:18.001Z,31.37
2019-02-09T10:25:47.481Z,31.33
2019-02-09T10:28:16.964Z,30.30
2019-02-09T10:30:46.482Z,32.57
2019-02-09T10:33:15.982Z,31.73
2019-02-09T10:35:45.466Z,31.87
2019-02-09T10:38:14.971Z,29.87
2019-02-09T10:40:44.448Z,30.23
2019-02-09T10:43:13.943Z,30.27
2019-02-09T10:45:46.138Z,30.13
2019-02-09T10:48:15.655Z,29.37
2019-02-09T10:50:46.124Z,29.43
2019-02-09T10:53:16.146Z,30.47
2019-02-09T10:55:45.573Z,29.70
2019-02-09T10:58:15.109Z,29.97
2019-02-09T11:00:47.887Z,29.00
2019-02-09T11:03:17.394Z,29.13
2019-02-09T11:05:47.000Z,28.03
2019-02-09T11:08:16.885Z,27.97
2019-02-09T11:10:46.450Z,26.10
2019-02-09T11:13:16.039Z,27.33
2019-02-09T11:15:45.592Z,27.63
2019-02-09T11:18:15.051Z,29.03
2019-02-09T11:20:44.581Z,27.87
2019-02-09T11:23:14.073Z,28.30
2019-02-09T11:25:43.602Z,28.27
2019-02-09T11:28:13.171Z,27.23
2019-02-09T11:30:42.998Z,27.70
2019-02-09T11:33:12.605Z,26.80
2019-02-09T11:35:42.102Z,27.57
2019-02-09T11:38:11.633Z,27.30
2019-02-09T11:40:41.159Z,26.83
2019-02-09T11:43:10.563Z,28.20
2019-02-09T11:45:40.035Z,27.73
2019-02-09T11:48:09.555Z,27.73
2019-02-09T11:50:39.065Z,28.07
2019-02-09T11:53:08.611Z,27.90
2019-02-09T11:55:38.102Z,28.33
2019-02-09T11:58:07.715Z,28.83
2019-02-09T12:00:43.177Z,27.20
2019-02-09T12:03:14.944Z,28.60
2019-02-09T12:05:43.853Z,28.70
2019-02-09T12:08:13.475Z,28.17
2019-02-09T12:10:42.977Z,28.60
2019-02-09T12:13:12.434Z,29.50
2019-02-09T12:15:41.917Z,29.07
2019-02-09T12:18:11.639Z,31.37
2019-02-09T12:20:41.123Z,30.60
2019-02-09T12:23:10.593Z,31.10
2019-02-09T12:25:40.448Z,29.40
2019-02-09T12:28:10.578Z,30.43
2019-02-09T12:30:40.200Z,34.00
2019-02-09T12:33:10.900Z,33.07
2019-02-09T12:35:40.693Z,29.97
2019-02-09T12:38:10.687Z,31.00
2019-02-09T12:40:40.457Z,31.97
2019-02-09T12:43:10.026Z,30.53
2019-02-09T12:45:39.840Z,44.20
2019-02-09T12:48:10.556Z,32.47
2019-02-09T12:50:40.245Z,30.90
2019-02-09T12:53:09.773Z,31.93
2019-02-09T12:55:39.252Z,31.47
2019-02-09T12:58:08.778Z,31.53
2019-02-09T13:00:38.920Z,35.83
2019-02-09T13:03:16.827Z,74.37
2019-02-09T13:05:46.300Z,32.23
2019-02-09T13:08:15.809Z,31.37
2019-02-09T13:10:45.297Z,31.43
2019-02-09T13:13:14.814Z,29.70
2019-02-09T13:15:44.293Z,30.63
2019-02-09T13:18:13.905Z,32.17
2019-02-09T13:20:43.393Z,32.77
2019-02-09T13:23:12.885Z,31.03
2019-02-09T13:25:42.359Z,27.67
2019-02-09T13:28:11.914Z,28.27
2019-02-09T13:30:41.942Z,27.00
2019-02-09T13:33:11.920Z,27.03
2019-02-09T13:35:41.389Z,29.00
2019-02-09T13:38:11.773Z,30.10
2019-02-09T13:40:41.319Z,36.03
2019-02-09T13:43:10.792Z,28.93
2019-02-09T13:45:46.308Z,27.77
2019-02-09T13:48:15.829Z,29.40
2019-02-09T13:50:45.634Z,30.20
2019-02-09T13:53:15.120Z,30.77
2019-02-09T13:55:44.647Z,31.00
2019-02-09T13:58:14.121Z,30.33
2019-02-09T14:00:43.627Z,30.40
2019-02-09T14:03:13.159Z,31.37
2019-02-09T14:05:42.606Z,33.10
2019-02-09T14:08:12.133Z,31.93
2019-02-09T14:10:41.614Z,32.03
2019-02-09T14:13:14.517Z,33.87
2019-02-09T14:15:42.467Z,35.20
2019-02-09T14:18:12.147Z,34.40
2019-02-09T14:20:41.657Z,35.83
2019-02-09T14:23:11.105Z,36.93
2019-02-09T14:25:40.645Z,35.80
2019-02-09T14:28:10.507Z,34.80
2019-02-09T14:30:40.023Z,36.30
2019-02-09T14:33:10.452Z,37.30
2019-02-09T14:35:42.170Z,36.37
2019-02-09T14:38:11.816Z,36.73
2019-02-09T14:40:41.797Z,37.37
2019-02-09T14:43:11.645Z,39.03
2019-02-09T14:45:43.188Z,36.80
2019-02-09T14:48:12.798Z,38.23
2019-02-09T14:50:42.327Z,38.80
2019-02-09T14:53:11.834Z,36.70
2019-02-09T14:55:41.309Z,39.80
2019-02-09T14:58:10.813Z,39.63
2019-02-09T15:00:42.933Z,47.97
2019-02-09T15:03:13.483Z,44.10
2019-02-09T15:05:44.603Z,41.97
2019-02-09T15:08:14.132Z,43.73
2019-02-09T15:10:43.634Z,42.13
2019-02-09T15:13:14.086Z,39.87
2019-02-09T15:16:11.309Z,45.73
2019-02-09T15:18:40.799Z,44.50
2019-02-09T15:21:10.313Z,41.43
2019-02-09T15:23:39.838Z,42.20
2019-02-09T15:26:09.364Z,43.07
2019-02-09T15:28:38.959Z,43.20
2019-02-09T15:31:08.427Z,56.17
2019-02-09T15:33:38.058Z,51.93
2019-02-09T15:36:07.598Z,51.70
2019-02-09T15:38:37.050Z,52.20
2019-02-09T15:41:06.535Z,51.30
2019-02-09T15:43:36.069Z,52.67
2019-02-09T15:46:05.963Z,58.90
2019-02-09T15:48:35.415Z,53.87
2019-02-09T15:51:04.910Z,52.07
2019-02-09T15:53:34.401Z,50.33
2019-02-09T15:56:04.009Z,49.53
2019-02-09T15:58:33.491Z,50.07
2019-02-09T16:01:04.785Z,56.40
2019-02-09T16:03:34.232Z,58.07
2019-02-09T16:06:03.795Z,73.33
2019-02-09T16:08:33.239Z,68.80
2019-02-09T16:11:02.767Z,63.00
2019-02-09T16:13:32.215Z,56.77
2019-02-09T16:16:01.718Z,54.17
2019-02-09T16:18:31.247Z,55.07
2019-02-09T16:21:00.734Z,49.90
2019-02-09T16:23:30.911Z,51.43
2019-02-09T16:26:01.047Z,52.10
2019-02-09T16:28:31.269Z,50.23
2019-02-09T16:31:01.375Z,51.13
2019-02-09T16:33:31.662Z,47.70
2019-02-09T16:36:03.169Z,45.17
2019-02-09T16:38:33.443Z,42.23
2019-02-09T16:41:03.690Z,43.63
2019-02-09T16:43:33.959Z,44.63
2019-02-09T16:46:04.249Z,47.20
2019-02-09T16:48:34.375Z,47.17
2019-02-09T16:51:04.593Z,49.67
2019-02-09T16:53:34.885Z,47.67
2019-02-09T16:56:05.579Z,46.87
2019-02-09T16:58:35.833Z,46.67
2019-02-09T17:01:06.569Z,48.20
2019-02-09T17:03:36.767Z,46.63
2019-02-09T17:06:07.274Z,50.50
2019-02-09T17:08:37.573Z,56.13
2019-02-09T17:11:10.880Z,55.40
2019-02-09T17:13:41.166Z,59.53
2019-02-09T17:16:11.446Z,58.77
2019-02-09T17:18:42.822Z,54.77
2019-02-09T17:21:13.040Z,55.70
2019-02-09T17:23:43.305Z,54.27
2019-02-09T17:26:15.024Z,52.67
2019-02-09T17:28:48.367Z,51.90
2019-02-09T17:31:18.651Z,51.00
2019-02-09T17:33:48.857Z,50.97
2019-02-09T17:36:19.114Z,47.00
2019-02-09T17:38:52.421Z,49.00
2019-02-09T17:41:22.686Z,52.13
2019-02-09T17:43:53.078Z,49.43
2019-02-09T17:46:23.376Z,45.47
2019-02-09T17:48:53.529Z,45.47
2019-02-09T17:51:25.190Z,46.80
2019-02-09T17:53:55.422Z,50.30
2019-02-09T17:56:25.603Z,61.27
2019-02-09T17:58:55.857Z,81.73
2019-02-09T18:01:26.227Z,88.53
2019-02-09T18:03:56.694Z,66.97
2019-02-09T18:06:26.901Z,69.23
2019-02-09T18:08:57.094Z,68.67
2019-02-09T18:11:27.374Z,58.37
2019-02-09T18:13:57.657Z,61.63
2019-02-09T18:16:27.820Z,63.53
2019-02-09T18:18:57.959Z,56.50
2019-02-09T18:21:28.260Z,47.83
2019-02-09T18:23:58.485Z,47.23
2019-02-09T18:26:28.733Z,47.20
2019-02-09T18:28:59.077Z,53.10
2019-02-09T18:31:29.323Z,54.27
2019-02-09T18:33:59.665Z,56.17
2019-02-09T18:36:29.937Z,52.07
2019-02-09T18:39:00.427Z,48.83
2019-02-09T18:41:30.676Z,40.77
2019-02-09T18:44:00.991Z,40.97
2019-02-09T18:46:31.226Z,37.90
2019-02-09T18:49:02.067Z,39.80
2019-02-09T18:51:32.351Z,40.10
2019-02-09T18:54:02.623Z,43.73
2019-02-09T18:56:32.753Z,36.43
2019-02-09T18:59:03.045Z,34.87
2019-02-09T19:01:33.419Z,34.53
2019-02-09T19:04:03.641Z,31.57
2019-02-09T19:06:33.987Z,28.40
2019-02-09T19:09:05.593Z,27.47
2019-02-09T19:11:35.866Z,26.53
2019-02-09T19:14:06.436Z,27.73
2019-02-09T19:16:36.653Z,26.47
2019-02-09T19:19:07.492Z,27.03
2019-02-09T19:21:37.876Z,29.20
2019-02-09T19:24:08.228Z,29.13
2019-02-09T19:26:38.436Z,26.90
2019-02-09T19:29:08.785Z,25.50
2019-02-09T19:31:38.909Z,26.27
2019-02-09T19:34:09.354Z,23.97
2019-02-09T19:36:39.896Z,26.47
2019-02-09T19:39:11.428Z,25.33
2019-02-09T19:41:41.999Z,24.30
2019-02-09T19:44:12.506Z,23.67
2019-02-09T19:46:43.003Z,23.63
2019-02-09T19:49:13.560Z,24.93
2019-02-09T19:51:44.017Z,25.00
2019-02-09T19:54:14.513Z,24.03
2019-02-09T19:56:45.040Z,23.73
2019-02-09T19:59:15.520Z,25.53
2019-02-09T20:01:46.083Z,25.03
2019-02-09T20:04:16.667Z,28.27
2019-02-09T20:06:47.215Z,29.30
2019-02-09T20:09:17.649Z,26.97
2019-02-09T20:11:48.001Z,26.60
2019-02-09T20:14:18.388Z,30.63
2019-02-09T20:16:48.581Z,29.13
2019-02-09T20:19:18.879Z,31.10
2019-02-09T20:21:49.140Z,30.03
2019-02-09T20:24:19.458Z,28.53
2019-02-09T20:26:49.675Z,28.43
2019-02-09T20:29:19.936Z,27.73
2019-02-09T20:31:50.327Z,26.30
2019-02-09T20:34:20.570Z,24.67
2019-02-09T20:36:50.829Z,25.03
2019-02-09T20:39:21.093Z,27.43
2019-02-09T20:41:51.357Z,25.80
2019-02-09T20:44:21.657Z,26.07
2019-02-09T20:46:51.887Z,25.33
2019-02-09T20:49:22.285Z,25.67
2019-02-09T20:51:52.542Z,28.63
2019-02-09T20:54:22.802Z,27.00
2019-02-09T20:56:53.084Z,27.97
2019-02-09T20:59:23.657Z,27.13
2019-02-09T21:01:53.925Z,26.67
2019-02-09T21:04:24.175Z,27.00
2019-02-09T21:06:54.435Z,26.77
2019-02-09T21:09:24.734Z,24.67
2019-02-09T21:11:54.976Z,24.33
2019-02-09T21:14:25.218Z,23.50
2019-02-09T21:16:55.525Z,24.27
2019-02-09T21:19:25.737Z,27.30
2019-02-09T21:21:56.050Z,30.50
2019-02-09T21:24:26.330Z,25.70
2019-02-09T21:26:56.531Z,25.23
2019-02-09T21:29:26.764Z,23.60
2019-02-09T21:31:57.039Z,23.67
2019-02-09T21:34:27.341Z,22.97
2019-02-09T21:36:57.637Z,22.10
2019-02-09T21:39:33.772Z,24.63
2019-02-09T21:41:59.792Z,24.47
2019-02-09T21:44:30.024Z,26.87
2019-02-09T21:47:00.284Z,26.43
2019-02-09T21:49:31.475Z,27.30
2019-02-09T21:52:01.645Z,25.40
2019-02-09T21:54:32.150Z,23.30
2019-02-09T21:57:02.310Z,24.90
2019-02-09T21:59:32.547Z,24.73
2019-02-09T22:02:02.868Z,24.90
2019-02-09T22:04:33.120Z,24.53
2019-02-09T22:07:03.227Z,51.60
2019-02-09T22:09:33.338Z,50.40
2019-02-09T22:12:03.471Z,51.17
2019-02-09T22:14:33.614Z,47.27
2019-02-09T22:17:03.802Z,49.37
2019-02-09T22:19:33.757Z,38.43
2019-02-09T22:22:03.829Z,34.23
2019-02-09T22:24:34.091Z,34.33
2019-02-09T22:27:04.055Z,32.50
2019-02-09T22:29:33.964Z,29.83
2019-02-09T22:32:03.552Z,26.90
2019-02-09T22:34:33.969Z,26.17
2019-02-09T22:37:03.632Z,24.60
2019-02-09T22:39:33.075Z,27.03
2019-02-09T22:42:02.568Z,27.13
2019-02-09T22:44:32.057Z,26.73
2019-02-09T22:47:01.548Z,26.83
2019-02-09T22:49:31.060Z,24.70
2019-02-09T22:52:00.532Z,25.93
2019-02-09T22:54:30.004Z,23.83
2019-02-09T22:57:00.165Z,25.83
2019-02-09T22:59:29.650Z,26.97
2019-02-09T23:01:59.103Z,25.73
2019-02-09T23:05:21.557Z,26.07
2019-02-09T23:07:51.045Z,28.33
2019-02-09T23:10:20.601Z,29.43
2019-02-09T23:12:50.073Z,29.87
2019-02-09T23:15:19.613Z,32.07
2019-02-09T23:17:49.077Z,36.30
2019-02-09T23:20:18.569Z,35.37
2019-02-09T23:22:48.074Z,35.57
2019-02-09T23:25:17.612Z,32.43
2019-02-09T23:27:47.058Z,30.33
2019-02-09T23:30:16.505Z,33.03
2019-02-09T23:32:46.004Z,36.37
2019-02-09T23:35:15.451Z,36.87
2019-02-09T23:37:44.925Z,38.93
2019-02-09T23:40:14.415Z,35.63
2019-02-09T23:42:43.877Z,38.07
2019-02-09T23:45:13.324Z,37.37
2019-02-09T23:47:42.894Z,38.47
2019-02-09T23:50:12.388Z,36.20
2019-02-09T23:52:41.883Z,39.03
2019-02-09T23:55:11.433Z,37.23
2019-02-09T23:57:40.921Z,37.50
